WetterOnline ( https://www.wetteronline.ch )

Wetter aktuell Podgorica

Aktuelles Wetter: Niksic (647m)

6-stündlich | Neueste Meldungen
Ortszeit Temperatur Wetter
Fr, 15.01. 13:00 0.6° C fast wolkenlos
Fr, 15.01. 7:00 -4.0° C fast wolkenlos
Fr, 15.01. 1:00 -2.9° C wolkenlos
Do, 14.01. 19:00 -0.1° C bedeckt
Do, 14.01. 13:00 -0.4° C bedeckt
Do, 14.01. 7:00 -5.3° C fast wolkenlos
Do, 14.01. 1:00 -2.4° C fast wolkenlos
Mi, 13.01. 19:00 0.6° C bedeckt
Ortszeit Temperatur Wetter
Fr, 15.01. 18:00 -2.1° C wolkenlos
Fr, 15.01. 17:00 -1.7° C leicht bewölkt
Fr, 15.01. 16:00 -0.8° C leicht bewölkt
Fr, 15.01. 15:00 0.7° C leicht bewölkt
Fr, 15.01. 14:00 0.7° C fast wolkenlos
Fr, 15.01. 13:00 0.6° C fast wolkenlos
Ortszeit Relative Feuchte Sichtweite
Fr, 15.01. 13:00 54% 20 km
Fr, 15.01. 7:00 82% 20 km
Fr, 15.01. 1:00 87% 20 km
Do, 14.01. 19:00 90% 18 km
Do, 14.01. 13:00 67% 20 km
Do, 14.01. 7:00 94% 20 km
Do, 14.01. 1:00 94% 20 km
Mi, 13.01. 19:00 92% 20 km
Ortszeit Relative Feuchte Sichtweite
Fr, 15.01. 18:00 55% 20 km
Fr, 15.01. 17:00 53% 20 km
Fr, 15.01. 16:00 53% 20 km
Fr, 15.01. 15:00 54% 20 km
Fr, 15.01. 14:00 54% 20 km
Fr, 15.01. 13:00 54% 20 km
Ortszeit Niederschlagsmenge Niederschlagsart
Fr, 15.01. 13:00 0.0 l/m2 in 6 Std. -
Fr, 15.01. 7:00 0.0 l/m2 in 12 Std. -
Fr, 15.01. 1:00 0.0 l/m2 in 6 Std. -
Do, 14.01. 19:00 0.6 l/m2 in 12 Std. Schnee
Do, 14.01. 13:00 0.0 l/m2 in 6 Std. -
Do, 14.01. 7:00 0.0 l/m2 in 12 Std. -
Do, 14.01. 1:00 0.0 l/m2 in 6 Std. -
Mi, 13.01. 19:00 0.2 l/m2 in 12 Std. Schnee
Ortszeit Niederschlagsmenge Niederschlagsart
Fr, 15.01. 18:00 keine Meldung -
Fr, 15.01. 17:00 keine Meldung -
Fr, 15.01. 16:00 keine Meldung -
Fr, 15.01. 15:00 keine Meldung -
Fr, 15.01. 14:00 keine Meldung -
Fr, 15.01. 13:00 keine Meldung -
Ortszeit Stärke Spitze Richtung
km/h Bft. km/h Grad Sektor
Fr, 15.01. 13:00 18 3 - 360° N
Fr, 15.01. 7:00 7 2 - 360° N
Fr, 15.01. 1:00 4 1 - 360° N
Do, 14.01. 19:00 11 2 - 360° N
Do, 14.01. 13:00 4 1 - 110° O
Do, 14.01. 7:00 7 2 - 20° N
Do, 14.01. 1:00 7 2 - 20° N
Mi, 13.01. 19:00 7 2 - 20° N
Ortszeit Stärke Spitze Richtung
km/h Bft. km/h Grad Sektor
Fr, 15.01. 18:00 14 3 - 20° N
Fr, 15.01. 17:00 14 3 - 20° N
Fr, 15.01. 16:00 14 3 - 50° NO
Fr, 15.01. 15:00 18 3 - 360° N
Fr, 15.01. 14:00 11 2 - 340° N
Fr, 15.01. 13:00 18 3 - 360° N
Ortszeit Untergrenze Bedeckung Gattung
total tief tief mittel hoch
Fr, 15.01. 13:00 1230 m 1/8 1/8 Cu - -
Fr, 15.01. 7:00 1230 m 1/8 1/8 Cu - -
Fr, 15.01. 1:00 - 0/8 0/8 - - -
Do, 14.01. 19:00 1230 m 8/8 5/8 Cu Ns -
Do, 14.01. 13:00 1230 m 8/8 4/8 Cu As -
Do, 14.01. 7:00 - 1/8 1/8 - Ac -
Do, 14.01. 1:00 1230 m 2/8 1/8 Cu Ac -
Mi, 13.01. 19:00 1230 m 8/8 5/8 Cu As -
Ortszeit Bedeckungsgrad in Achtel und Wolkenuntergrenze
Fr, 15.01. 18:00 keine Wolken
Fr, 15.01. 17:00 1(1230m) 4
Fr, 15.01. 16:00 1(1230m)
Fr, 15.01. 15:00 3
Fr, 15.01. 14:00 1(1230m)
Fr, 15.01. 13:00 1(1230m)
Ortszeit Luftdruck NN (hPa) Tendenz (hPa in 3 Std.)
Fr, 15.01. 13:00 1016 - 1,2
Fr, 15.01. 7:00 1018 0,0
Fr, 15.01. 1:00 1017 + 2,2
Do, 14.01. 19:00 1013 + 1,2
Do, 14.01. 13:00 1012 - 2,0
Do, 14.01. 7:00 1016 - 0,9
Do, 14.01. 1:00 1017 + 1,3
Mi, 13.01. 19:00 1014 + 0,8
Ortszeit Luftdruck NN (hPa) Tendenz (hPa in 3 Std.)
Fr, 15.01. 18:00 1016 0,0
Fr, 15.01. 17:00 1016 0,0
Fr, 15.01. 16:00 1016 - 0,4
Fr, 15.01. 15:00 1015 - 1,2
Fr, 15.01. 14:00 1015 - 1,3
Fr, 15.01. 13:00 1016 - 1,2
Ortszeit Schneehöhe (cm)
Fr, 15.01. 13:00 -
Fr, 15.01. 7:00 1
Fr, 15.01. 1:00 -
Do, 14.01. 19:00 1
Do, 14.01. 13:00 -
Do, 14.01. 7:00 0
Do, 14.01. 1:00 -
Mi, 13.01. 19:00 -
Ortszeit Schneehöhe (cm)
Fr, 15.01. 18:00 -
Fr, 15.01. 17:00 -
Fr, 15.01. 16:00 -
Fr, 15.01. 15:00 -
Fr, 15.01. 14:00 -
Fr, 15.01. 13:00 -
Link zu dieser Seite / Seite empfehlen

Das Wetter in ...